createdAt,value
2017-07-01T00:01:40.061Z,76.80
2017-07-01T00:04:08.301Z,75.40
2017-07-01T00:06:35.829Z,75.40
2017-07-01T00:09:03.433Z,74.60
2017-07-01T00:11:30.909Z,75.10
2017-07-01T00:13:58.540Z,73.90
2017-07-01T00:16:26.079Z,73.60
2017-07-01T00:18:53.759Z,73.20
2017-07-01T00:21:21.369Z,73.60
2017-07-01T00:23:49.773Z,70.90
2017-07-01T00:26:17.245Z,70.80
2017-07-01T00:28:44.712Z,71.30
2017-07-01T00:31:12.204Z,71.90
2017-07-01T00:33:40.440Z,71.80
2017-07-01T00:36:07.908Z,71.70
2017-07-01T00:38:35.412Z,72.00
2017-07-01T00:41:02.885Z,72.00
2017-07-01T00:43:30.356Z,72.20
2017-07-01T00:45:57.857Z,71.70
2017-07-01T00:48:25.329Z,71.80
2017-07-01T00:50:53.559Z,71.50
2017-07-01T00:53:21.304Z,71.50
2017-07-01T00:55:48.773Z,70.30
2017-07-01T00:58:16.242Z,70.00
2017-07-01T01:00:43.751Z,69.50
2017-07-01T01:03:11.225Z,70.10
2017-07-01T01:05:38.692Z,69.70
2017-07-01T01:08:06.180Z,69.90
2017-07-01T01:10:33.645Z,69.00
2017-07-01T01:13:01.213Z,70.30
2017-07-01T01:15:28.704Z,70.60
2017-07-01T01:17:56.172Z,70.90
2017-07-01T01:20:23.941Z,70.60
2017-07-01T01:22:51.445Z,70.90
2017-07-01T01:25:18.916Z,71.90
2017-07-01T01:27:47.145Z,71.90
2017-07-01T01:30:14.637Z,71.90
2017-07-01T01:32:42.110Z,72.50
2017-07-01T01:35:10.349Z,71.10
2017-07-01T01:37:37.836Z,71.10
2017-07-01T01:40:06.069Z,69.90
2017-07-01T01:42:33.541Z,69.90
2017-07-01T01:45:01.028Z,69.70
2017-07-01T01:47:29.261Z,67.50
2017-07-01T01:49:56.761Z,67.50
2017-07-01T01:52:25.024Z,67.30
2017-07-01T01:54:52.597Z,68.00
2017-07-01T01:57:21.013Z,66.60
2017-07-01T01:59:48.504Z,66.60
2017-07-01T02:02:15.973Z,66.60
2017-07-01T02:04:43.445Z,66.50
2017-07-01T02:07:11.700Z,66.40
2017-07-01T02:09:39.170Z,66.40
2017-07-01T02:12:10.848Z,66.70
2017-07-01T02:14:38.317Z,66.70
2017-07-01T02:17:30.977Z,66.80
2017-07-01T02:19:58.456Z,66.60
2017-07-01T02:22:42.748Z,66.80
2017-07-01T02:25:17.757Z,66.40
2017-07-01T02:27:45.286Z,66.40
2017-07-01T02:30:12.790Z,67.00
2017-07-01T02:32:56.834Z,66.80
2017-07-01T02:35:25.103Z,67.40
2017-07-01T02:37:53.649Z,67.60
2017-07-01T02:40:21.177Z,67.50
2017-07-01T02:42:48.681Z,67.30
2017-07-01T02:45:26.142Z,67.20
2017-07-01T02:48:10.440Z,67.60
2017-07-01T02:50:45.369Z,67.50
2017-07-01T02:53:13.708Z,67.80
2017-07-01T02:55:53.061Z,67.80
2017-07-01T02:58:20.529Z,67.80
2017-07-01T03:00:52.758Z,67.90
2017-07-01T03:03:20.278Z,68.10
2017-07-01T03:05:48.545Z,67.80
2017-07-01T03:08:16.072Z,67.70
2017-07-01T03:10:43.578Z,68.20
2017-07-01T03:13:11.813Z,68.00
2017-07-01T03:15:39.304Z,68.00
2017-07-01T03:18:07.575Z,68.20
2017-07-01T03:20:35.812Z,68.20
2017-07-01T03:23:06.713Z,68.20
2017-07-01T03:25:34.181Z,68.10
2017-07-01T03:28:01.648Z,68.30
2017-07-01T03:30:29.153Z,68.20
2017-07-01T03:32:56.625Z,68.60
2017-07-01T03:35:24.861Z,68.70
2017-07-01T03:38:04.153Z,68.70
2017-07-01T03:40:55.225Z,68.50
2017-07-01T03:43:39.337Z,68.50
2017-07-01T03:46:12.353Z,68.70
2017-07-01T03:48:47.376Z,69.00
2017-07-01T03:51:14.844Z,69.40
2017-07-01T03:53:42.313Z,68.50
2017-07-01T03:56:10.846Z,68.90
2017-07-01T03:58:38.356Z,68.80
2017-07-01T04:01:06.592Z,69.50
2017-07-01T04:03:34.084Z,68.90
2017-07-01T04:06:02.328Z,69.80
2017-07-01T04:08:29.798Z,69.30
2017-07-01T04:10:57.288Z,69.40
2017-07-01T04:13:27.160Z,69.80
2017-07-01T04:15:55.441Z,69.50
2017-07-01T04:18:28.881Z,69.50
2017-07-01T04:20:57.121Z,70.10
2017-07-01T04:23:24.594Z,70.10
2017-07-01T04:25:52.080Z,70.10
2017-07-01T04:28:19.550Z,70.30
2017-07-01T04:30:47.053Z,70.30
2017-07-01T04:33:14.590Z,70.10
2017-07-01T04:35:42.087Z,70.10
2017-07-01T04:38:12.291Z,70.90
2017-07-01T04:40:43.608Z,70.90
2017-07-01T04:43:17.593Z,71.60
2017-07-01T04:46:11.712Z,72.10
2017-07-01T04:48:42.069Z,72.80
2017-07-01T04:51:28.126Z,72.70
2017-07-01T04:53:55.596Z,72.30
2017-07-01T04:56:32.029Z,73.70
2017-07-01T04:58:59.501Z,73.60
2017-07-01T05:01:27.809Z,72.50
2017-07-01T05:03:55.304Z,73.10
2017-07-01T05:06:35.284Z,74.20
2017-07-01T05:09:02.777Z,76.40
2017-07-01T05:11:30.245Z,76.70
2017-07-01T05:13:58.480Z,76.80
2017-07-01T05:16:25.987Z,76.80
2017-07-01T05:18:54.226Z,76.80
2017-07-01T05:21:22.540Z,76.80
2017-07-01T05:24:04.376Z,77.00
2017-07-01T05:26:32.125Z,76.90
2017-07-01T05:28:59.597Z,76.40
2017-07-01T05:31:35.354Z,77.30
2017-07-01T05:34:07.504Z,76.30
2017-07-01T05:36:51.573Z,75.00
2017-07-01T05:39:20.844Z,75.00
2017-07-01T05:42:06.977Z,74.70
2017-07-01T05:44:53.305Z,74.40
2017-07-01T05:47:24.422Z,72.90
2017-07-01T05:49:51.925Z,72.90
2017-07-01T05:52:19.434Z,72.60
2017-07-01T05:54:46.965Z,71.70
2017-07-01T05:57:14.441Z,71.60
2017-07-01T05:59:43.669Z,72.20
2017-07-01T06:02:23.384Z,72.60
2017-07-01T06:04:50.891Z,72.60
2017-07-01T06:07:18.394Z,72.20
2017-07-01T06:10:06.667Z,72.20
2017-07-01T06:12:41.468Z,73.20
2017-07-01T06:15:20.833Z,73.20
2017-07-01T06:17:49.151Z,72.80
2017-07-01T06:20:28.614Z,72.80
2017-07-01T06:22:56.992Z,72.70
2017-07-01T06:25:24.461Z,73.70
2017-07-01T06:27:53.895Z,73.80
2017-07-01T06:30:25.064Z,74.50
2017-07-01T06:33:03.196Z,76.20
2017-07-01T06:35:32.277Z,77.30
2017-07-01T06:38:31.361Z,77.50
2017-07-01T06:41:21.349Z,77.40
2017-07-01T06:44:15.601Z,76.70
2017-07-01T06:47:07.684Z,77.50
2017-07-01T06:49:49.056Z,77.00
2017-07-01T06:52:17.436Z,77.10
2017-07-01T06:54:44.904Z,76.30
2017-07-01T06:57:12.396Z,76.20
2017-07-01T06:59:39.865Z,77.60
2017-07-01T07:02:08.109Z,74.60
2017-07-01T07:04:35.600Z,74.00
2017-07-01T07:07:03.832Z,73.80
2017-07-01T07:09:31.581Z,73.40
2017-07-01T07:11:59.111Z,71.80
2017-07-01T07:14:31.430Z,70.90
2017-07-01T07:16:58.963Z,69.70
2017-07-01T07:19:26.469Z,69.80
2017-07-01T07:21:53.979Z,68.70
2017-07-01T07:24:21.510Z,68.50
2017-07-01T07:26:49.781Z,67.70
2017-07-01T07:29:18.050Z,67.50
2017-07-01T07:31:46.361Z,65.80
2017-07-01T07:34:13.835Z,65.80
2017-07-01T07:36:41.305Z,66.90
2017-07-01T07:39:08.830Z,66.60
2017-07-01T07:41:36.333Z,67.00
2017-07-01T07:44:03.842Z,65.30
2017-07-01T07:46:31.374Z,65.80
2017-07-01T07:48:59.649Z,64.90
2017-07-01T07:51:27.914Z,64.40
2017-07-01T07:53:55.447Z,64.30
2017-07-01T07:56:23.189Z,63.80
2017-07-01T07:58:50.690Z,63.90
2017-07-01T08:01:18.222Z,62.60
2017-07-01T08:03:45.726Z,63.70
2017-07-01T08:06:13.968Z,63.60
2017-07-01T08:08:41.460Z,63.60
2017-07-01T08:11:09.802Z,62.40
2017-07-01T08:13:37.305Z,62.20
2017-07-01T08:16:04.841Z,62.50
2017-07-01T08:18:33.076Z,61.80
2017-07-01T08:21:00.546Z,61.80
2017-07-01T08:23:28.074Z,61.60
2017-07-01T08:25:55.578Z,62.40
2017-07-01T08:28:23.082Z,62.80
2017-07-01T08:30:50.609Z,62.10
2017-07-01T08:33:18.844Z,61.30
2017-07-01T08:35:46.341Z,61.20
2017-07-01T08:38:14.637Z,61.90
2017-07-01T08:40:42.145Z,61.90
2017-07-01T08:43:09.625Z,62.20
2017-07-01T08:45:37.173Z,60.60
2017-07-01T08:48:04.645Z,61.80
2017-07-01T08:50:32.880Z,61.30
2017-07-01T08:53:00.377Z,61.30
2017-07-01T08:55:28.613Z,61.00
2017-07-01T08:57:56.081Z,60.70
2017-07-01T09:00:23.574Z,60.60
2017-07-01T09:02:51.817Z,61.60
2017-07-01T09:05:19.289Z,61.60
2017-07-01T09:07:46.776Z,59.80
2017-07-01T09:10:14.248Z,59.70
2017-07-01T09:12:41.724Z,60.50
2017-07-01T09:15:09.212Z,59.10
2017-07-01T09:17:36.680Z,60.20
2017-07-01T09:20:04.920Z,59.90
2017-07-01T09:22:32.410Z,59.20
2017-07-01T09:24:59.915Z,59.00
2017-07-01T09:27:27.417Z,58.50
2017-07-01T09:29:54.946Z,57.90
2017-07-01T09:32:22.450Z,58.70
2017-07-01T09:34:50.689Z,59.00
2017-07-01T09:37:18.224Z,58.90
2017-07-01T09:39:45.730Z,59.00
2017-07-01T09:42:13.234Z,59.20
2017-07-01T09:44:40.728Z,59.50
2017-07-01T09:47:08.193Z,59.70
2017-07-01T09:49:35.662Z,59.30
2017-07-01T09:52:03.153Z,58.90
2017-07-01T09:54:30.621Z,59.50
2017-07-01T09:56:58.095Z,59.10
2017-07-01T09:59:25.580Z,59.80
2017-07-01T10:01:53.049Z,59.00
2017-07-01T10:04:20.517Z,58.60
2017-07-01T10:06:48.025Z,59.40
2017-07-01T10:09:15.493Z,58.90
2017-07-01T10:11:42.964Z,59.60
2017-07-01T10:14:10.453Z,59.00
2017-07-01T10:16:38.688Z,58.80
2017-07-01T10:19:06.157Z,58.80
2017-07-01T10:21:33.649Z,59.30
2017-07-01T10:24:01.337Z,58.70
2017-07-01T10:26:28.809Z,58.50
2017-07-01T10:28:56.329Z,59.10
2017-07-01T10:31:23.802Z,58.50
2017-07-01T10:33:51.270Z,57.90
2017-07-01T10:36:18.761Z,57.30
2017-07-01T10:38:46.229Z,56.80
2017-07-01T10:41:13.697Z,57.70
2017-07-01T10:43:41.959Z,58.60
2017-07-01T10:46:09.428Z,58.00
2017-07-01T10:48:37.660Z,57.60
2017-07-01T10:51:05.148Z,57.50
2017-07-01T10:53:32.617Z,58.10
2017-07-01T10:56:00.857Z,58.10
2017-07-01T10:58:28.361Z,58.10
2017-07-01T11:00:56.597Z,57.10
2017-07-01T11:03:24.069Z,57.00
2017-07-01T11:05:51.564Z,56.30
2017-07-01T11:08:19.037Z,56.90
2017-07-01T11:10:46.557Z,56.10
2017-07-01T11:13:14.854Z,56.70
2017-07-01T11:15:42.361Z,56.70
2017-07-01T11:18:09.883Z,57.30
2017-07-01T11:20:37.414Z,57.90
2017-07-01T11:23:05.696Z,56.80
2017-07-01T11:25:33.206Z,56.80
2017-07-01T11:28:01.053Z,55.90
2017-07-01T11:30:28.808Z,56.70
2017-07-01T11:32:56.497Z,56.60
2017-07-01T11:35:23.985Z,57.90
2017-07-01T11:37:52.223Z,58.40
2017-07-01T11:40:19.693Z,58.40
2017-07-01T11:42:47.403Z,59.60
2017-07-01T11:45:14.913Z,60.70
2017-07-01T11:47:42.422Z,61.30
2017-07-01T11:50:10.210Z,61.50
2017-07-01T11:52:37.729Z,62.40
2017-07-01T11:55:05.232Z,62.20
2017-07-01T11:57:32.758Z,62.70
2017-07-01T12:00:00.269Z,62.90
2017-07-01T12:02:27.774Z,63.70
2017-07-01T12:04:55.269Z,65.20
2017-07-01T12:07:22.736Z,65.90
2017-07-01T12:09:50.213Z,67.30
2017-07-01T12:12:17.721Z,71.30
2017-07-01T12:14:45.193Z,71.80
2017-07-01T12:17:12.661Z,72.80
2017-07-01T12:19:40.153Z,74.00
2017-07-01T12:22:08.400Z,73.90
2017-07-01T12:24:35.869Z,73.90
2017-07-01T12:27:03.361Z,75.80
2017-07-01T12:29:30.834Z,75.80
2017-07-01T12:31:58.305Z,75.70
2017-07-01T12:34:25.793Z,74.60
2017-07-01T12:36:53.302Z,74.90
2017-07-01T12:39:20.806Z,74.70
2017-07-01T12:41:48.311Z,74.60
2017-07-01T12:44:15.785Z,75.70
2017-07-01T12:46:43.253Z,76.10
2017-07-01T12:49:10.745Z,74.10
2017-07-01T12:51:38.212Z,73.90
2017-07-01T12:54:06.482Z,73.50
2017-07-01T12:56:34.777Z,73.90
2017-07-01T12:59:02.277Z,73.90
2017-07-01T13:01:29.786Z,74.60
2017-07-01T13:03:58.065Z,73.30
2017-07-01T13:06:26.336Z,72.60
2017-07-01T13:08:54.575Z,70.90
2017-07-01T13:11:22.080Z,71.00
2017-07-01T13:13:49.553Z,70.70
2017-07-01T13:16:17.061Z,71.90
2017-07-01T13:18:44.590Z,74.10
2017-07-01T13:21:12.094Z,73.60
2017-07-01T13:23:40.630Z,74.90
2017-07-01T13:26:08.162Z,74.90
2017-07-01T13:28:35.665Z,76.70
2017-07-01T13:31:03.169Z,75.90
2017-07-01T13:33:30.702Z,76.00
2017-07-01T13:35:58.977Z,77.60
2017-07-01T13:38:27.509Z,77.00
2017-07-01T13:40:55.020Z,77.00
2017-07-01T13:43:23.258Z,75.90
2017-07-01T13:45:50.733Z,75.70
2017-07-01T13:48:18.224Z,73.80
2017-07-01T13:50:46.622Z,73.50
2017-07-01T13:53:14.126Z,73.50
2017-07-01T13:55:41.625Z,72.30
2017-07-01T13:58:09.097Z,70.10
2017-07-01T14:00:36.569Z,71.40
2017-07-01T14:03:04.062Z,71.80
2017-07-01T14:05:31.537Z,72.10
2017-07-01T14:07:59.768Z,71.60
2017-07-01T14:10:27.261Z,71.60
2017-07-01T14:12:55.792Z,68.10
2017-07-01T14:15:23.557Z,68.70
2017-07-01T14:17:51.085Z,70.00
2017-07-01T14:20:18.601Z,68.90
2017-07-01T14:22:46.078Z,67.90
2017-07-01T14:25:13.572Z,66.40
2017-07-01T14:27:41.084Z,66.70
2017-07-01T14:30:08.569Z,65.90
2017-07-01T14:32:36.420Z,64.30
2017-07-01T14:35:04.669Z,64.40
2017-07-01T14:37:32.141Z,64.50
2017-07-01T14:39:59.634Z,63.30
2017-07-01T14:42:27.425Z,63.40
2017-07-01T14:44:54.936Z,62.10
2017-07-01T14:47:23.224Z,59.80
2017-07-01T14:49:50.696Z,59.80
2017-07-01T14:52:18.476Z,59.40
2017-07-01T14:54:45.968Z,61.20
2017-07-01T14:57:13.441Z,59.40
2017-07-01T14:59:40.912Z,58.60
2017-07-01T15:02:09.173Z,58.90
2017-07-01T15:04:36.648Z,58.90
2017-07-01T15:07:04.893Z,56.90
2017-07-01T15:09:32.388Z,57.00
2017-07-01T15:11:59.857Z,57.50
2017-07-01T15:14:27.330Z,56.50
2017-07-01T15:16:54.820Z,54.50
2017-07-01T15:19:22.290Z,56.20
2017-07-01T15:21:50.528Z,56.90
2017-07-01T15:24:18.016Z,56.20
2017-07-01T15:26:45.484Z,57.40
2017-07-01T15:29:13.725Z,58.90
2017-07-01T15:31:41.471Z,58.30
2017-07-01T15:34:08.945Z,56.50
2017-07-01T15:36:36.412Z,55.90
2017-07-01T15:39:03.925Z,56.20
2017-07-01T15:41:31.397Z,57.60
2017-07-01T15:43:58.872Z,57.00
2017-07-01T15:46:26.361Z,56.50
2017-07-01T15:48:54.600Z,56.60
2017-07-01T15:51:22.069Z,56.40
2017-07-01T15:53:49.564Z,56.90
2017-07-01T15:56:17.801Z,57.40
2017-07-01T15:58:45.268Z,57.40
2017-07-01T16:01:24.714Z,58.10
2017-07-01T16:03:52.185Z,58.10
2017-07-01T16:06:20.424Z,58.30
2017-07-01T16:08:47.936Z,58.30
2017-07-01T16:11:15.406Z,58.60
2017-07-01T16:13:42.916Z,58.80
2017-07-01T16:16:10.433Z,59.50
2017-07-01T16:18:37.910Z,58.10
2017-07-01T16:21:05.381Z,58.10
2017-07-01T16:23:32.873Z,58.60
2017-07-01T16:26:01.385Z,58.80
2017-07-01T16:28:28.871Z,58.80
2017-07-01T16:30:56.393Z,59.00
2017-07-01T16:33:23.884Z,59.70
2017-07-01T16:35:51.361Z,59.40
2017-07-01T16:38:18.857Z,59.30
2017-07-01T16:40:46.325Z,59.50
2017-07-01T16:43:13.797Z,59.70
2017-07-01T16:45:41.297Z,59.90
2017-07-01T16:48:09.580Z,59.90
2017-07-01T16:50:37.821Z,59.40
2017-07-01T16:53:05.334Z,59.40
2017-07-01T16:55:32.807Z,59.60
2017-07-01T16:58:00.276Z,59.60
2017-07-01T17:00:27.769Z,59.60
2017-07-01T17:02:55.245Z,59.80
2017-07-01T17:05:23.482Z,59.70
2017-07-01T17:07:51.101Z,59.70
2017-07-01T17:10:18.877Z,59.20
2017-07-01T17:12:46.351Z,58.40
2017-07-01T17:15:13.853Z,58.70
2017-07-01T17:17:42.091Z,59.00
2017-07-01T17:20:09.560Z,59.00
2017-07-01T17:22:37.057Z,58.00
2017-07-01T17:25:04.525Z,58.50
2017-07-01T17:27:31.994Z,58.30
2017-07-01T17:29:59.493Z,58.10
2017-07-01T17:32:26.963Z,58.30
2017-07-01T17:34:55.207Z,58.30
2017-07-01T17:37:22.701Z,58.60
2017-07-01T17:39:50.941Z,58.90
2017-07-01T17:42:18.416Z,58.90
2017-07-01T17:44:45.904Z,59.20
2017-07-01T17:47:13.376Z,59.40
2017-07-01T17:49:40.844Z,59.50
2017-07-01T17:52:08.341Z,59.90
2017-07-01T17:54:35.811Z,60.60
2017-07-01T17:57:03.280Z,62.60
2017-07-01T17:59:31.541Z,66.80
2017-07-01T18:01:59.013Z,66.80
2017-07-01T18:04:27.258Z,68.30
2017-07-01T18:06:54.752Z,68.30
2017-07-01T18:09:22.989Z,71.60
2017-07-01T18:11:50.461Z,71.50
2017-07-01T18:14:18.281Z,74.00
2017-07-01T18:16:45.812Z,74.20
2017-07-01T18:19:13.325Z,74.90
2017-07-01T18:21:40.813Z,76.70
2017-07-01T18:24:09.049Z,79.00
2017-07-01T18:26:36.521Z,79.00
2017-07-01T18:29:04.013Z,78.80
2017-07-01T18:31:32.250Z,79.90
2017-07-01T18:33:59.973Z,79.70
2017-07-01T18:36:27.471Z,81.30
2017-07-01T18:38:54.948Z,81.90
2017-07-01T18:41:23.193Z,82.10
2017-07-01T18:43:50.685Z,82.60
2017-07-01T18:46:18.922Z,83.50
2017-07-01T18:48:46.397Z,83.50
2017-07-01T18:51:13.976Z,84.60
2017-07-01T18:53:42.223Z,83.10
2017-07-01T18:56:09.694Z,83.10
2017-07-01T18:58:37.190Z,84.30
2017-07-01T19:01:04.662Z,83.30
2017-07-01T19:03:32.140Z,84.90
2017-07-01T19:05:59.640Z,83.30
2017-07-01T19:08:27.885Z,83.90
2017-07-01T19:10:55.365Z,83.80
2017-07-01T19:13:23.626Z,84.10
2017-07-01T19:15:51.169Z,84.10
2017-07-01T19:18:18.646Z,85.60
2017-07-01T19:20:46.145Z,84.30
2017-07-01T19:23:13.924Z,86.00
2017-07-01T19:25:41.693Z,86.20
2017-07-01T19:28:09.197Z,86.90
2017-07-01T19:30:37.437Z,87.90
2017-07-01T19:33:04.909Z,87.60
2017-07-01T19:35:32.421Z,87.30
2017-07-01T19:37:59.897Z,87.50
2017-07-01T19:40:27.378Z,87.00
2017-07-01T19:42:55.956Z,87.10
2017-07-01T19:45:23.425Z,87.10
2017-07-01T19:47:51.017Z,88.20
2017-07-01T19:50:18.877Z,87.00
2017-07-01T19:52:47.112Z,87.40
2017-07-01T19:55:14.607Z,87.40
2017-07-01T19:57:42.148Z,88.10
2017-07-01T20:00:11.338Z,88.50
2017-07-01T20:02:38.861Z,88.40
2017-07-01T20:05:06.561Z,88.60
2017-07-01T20:07:35.466Z,88.50
2017-07-01T20:10:03.801Z,88.30
2017-07-01T20:12:31.382Z,88.30
2017-07-01T20:14:59.661Z,89.40
2017-07-01T20:17:27.391Z,88.80
2017-07-01T20:19:54.942Z,88.20
2017-07-01T20:22:22.429Z,88.10
2017-07-01T20:24:49.898Z,89.30
2017-07-01T20:27:17.464Z,88.90
2017-07-01T20:29:44.941Z,88.80
2017-07-01T20:32:12.453Z,88.90
2017-07-01T20:34:39.971Z,88.90
2017-07-01T20:37:07.620Z,89.10
2017-07-01T20:39:35.209Z,89.60
2017-07-01T20:42:02.878Z,88.90
2017-07-01T20:44:30.428Z,89.60
2017-07-01T20:46:57.905Z,89.30
2017-07-01T20:49:25.447Z,90.00
2017-07-01T20:51:52.921Z,89.00
2017-07-01T20:54:20.397Z,89.60
2017-07-01T20:56:47.897Z,90.20
2017-07-01T20:59:15.537Z,89.30
2017-07-01T21:01:43.773Z,89.90
2017-07-01T21:04:11.268Z,89.80
2017-07-01T21:06:39.508Z,90.00
2017-07-01T21:09:06.983Z,89.90
2017-07-01T21:11:34.483Z,90.40
2017-07-01T21:14:01.968Z,89.50
2017-07-01T21:16:29.446Z,89.90
2017-07-01T21:18:56.936Z,90.20
2017-07-01T21:21:25.173Z,90.10
2017-07-01T21:23:52.645Z,90.10
2017-07-01T21:26:20.141Z,89.70
2017-07-01T21:28:47.608Z,90.10
2017-07-01T21:31:15.340Z,90.30
2017-07-01T21:33:43.621Z,89.60
2017-07-01T21:36:11.857Z,90.00
2017-07-01T21:38:39.325Z,90.00
2017-07-01T21:41:06.817Z,90.20
2017-07-01T21:43:35.056Z,90.50
2017-07-01T21:46:02.526Z,90.40
2017-07-01T21:48:30.031Z,90.20
2017-07-01T21:50:57.503Z,90.20
2017-07-01T21:53:24.973Z,90.50
2017-07-01T21:55:52.461Z,90.20
2017-07-01T21:58:20.697Z,90.20
2017-07-01T22:00:48.173Z,90.30
2017-07-01T22:03:15.673Z,90.20
2017-07-01T22:05:43.149Z,90.20
2017-07-01T22:08:10.620Z,89.80
2017-07-01T22:10:38.117Z,90.00
2017-07-01T22:13:05.588Z,89.60
2017-07-01T22:15:33.824Z,90.00
2017-07-01T22:18:01.317Z,89.90
2017-07-01T22:20:29.557Z,90.50
2017-07-01T22:22:57.027Z,90.40
2017-07-01T22:25:24.517Z,90.20
2017-07-01T22:27:52.753Z,90.00
2017-07-01T22:30:20.224Z,90.00
2017-07-01T22:32:47.758Z,90.00
2017-07-01T22:35:15.229Z,90.20
2017-07-01T22:37:42.702Z,89.80
2017-07-01T22:40:10.425Z,89.70
2017-07-01T22:42:37.893Z,89.80
2017-07-01T22:45:05.364Z,90.20
2017-07-01T22:47:32.859Z,90.10
2017-07-01T22:50:01.092Z,90.10
2017-07-01T22:52:28.564Z,90.10
2017-07-01T22:54:56.054Z,90.30
2017-07-01T22:57:23.529Z,90.10
2017-07-01T22:59:50.997Z,90.30
2017-07-01T23:02:18.493Z,90.20
2017-07-01T23:04:45.965Z,90.00
2017-07-01T23:07:14.200Z,90.20
2017-07-01T23:09:41.693Z,90.20
2017-07-01T23:12:09.929Z,90.60
2017-07-01T23:14:37.396Z,90.30
2017-07-01T23:17:05.132Z,90.00
2017-07-01T23:19:32.644Z,90.40
2017-07-01T23:22:00.881Z,90.80
2017-07-01T23:24:28.371Z,90.50
2017-07-01T23:26:56.356Z,90.70
2017-07-01T23:29:24.593Z,90.90
2017-07-01T23:31:52.085Z,90.90
2017-07-01T23:34:20.325Z,90.90
2017-07-01T23:36:47.791Z,90.80
2017-07-01T23:39:15.281Z,91.00
2017-07-01T23:41:43.574Z,91.10
2017-07-01T23:44:11.045Z,91.10
2017-07-01T23:46:38.533Z,91.10
2017-07-01T23:49:06.001Z,91.10
2017-07-01T23:51:33.472Z,91.10
2017-07-01T23:54:02.713Z,91.20
2017-07-01T23:56:30.180Z,91.20
2017-07-01T23:58:57.649Z,91.40
